Time;durP1;ratioP1;P1;durP2;ratioP2;P2;SDS_P1;SDS_P2;PMS_P1;PMS_P2;Temp;Humidity;BMP_temperature;BMP_pressure;BME280_temperature;BME280_humidity;BME280_pressure;Samples;Min_cycle;Max_cycle;Signal;HPM_P1;HPM_P2
2023/12/03 00:02:02;;;;;;;14.80;7.20;;;18.30;51.90;;;;;;5104032;28;20080;-48
2023/12/03 00:04:28;;;;;;;14.98;6.88;;;18.30;51.70;;;;;;5102830;28;20510;-53
2023/12/03 00:06:54;;;;;;;21.00;6.80;;;18.30;52.20;;;;;;5097428;28;20024;-48
2023/12/03 00:09:20;;;;;;;10.50;6.43;;;18.30;52.40;;;;;;5097887;28;20594;-46
2023/12/03 00:11:46;;;;;;;16.30;5.65;;;18.20;52.10;;;;;;5093931;28;20267;-45
2023/12/03 00:14:12;;;;;;;12.75;6.15;;;18.20;51.70;;;;;;5092724;28;20032;-54
2023/12/03 00:16:37;;;;;;;12.38;6.35;;;18.20;51.50;;;;;;5086217;28;20023;-46
2023/12/03 00:19:03;;;;;;;10.90;6.30;;;18.20;51.40;;;;;;5111684;28;20015;-47
2023/12/03 00:21:29;;;;;;;12.43;5.70;;;18.20;51.20;;;;;;5112918;28;20028;-46
2023/12/03 00:23:55;;;;;;;16.08;5.60;;;18.20;51.00;;;;;;5113044;28;20028;-48
2023/12/03 00:26:20;;;;;;;10.50;5.28;;;18.20;51.00;;;;;;5111852;28;20031;-49
2023/12/03 00:28:46;;;;;;;7.75;4.97;;;18.20;51.00;;;;;;5111472;28;20123;-49
2023/12/03 00:31:12;;;;;;;13.35;5.05;;;18.20;51.80;;;;;;5111996;28;20028;-53
2023/12/03 00:33:38;;;;;;;12.30;5.15;;;18.20;50.80;;;;;;5111938;28;20410;-46
2023/12/03 00:36:04;;;;;;;8.55;5.47;;;18.20;51.50;;;;;;5111069;28;20106;-50
2023/12/03 00:38:30;;;;;;;9.68;5.32;;;18.20;51.70;;;;;;5111605;28;20027;-52
2023/12/03 00:40:56;;;;;;;10.68;5.20;;;18.20;51.40;;;;;;5111410;28;20030;-45
2023/12/03 00:43:21;;;;;;;14.85;5.20;;;18.20;51.20;;;;;;5104774;28;20043;-52
2023/12/03 00:45:47;;;;;;;9.65;5.07;;;18.20;51.20;;;;;;5107172;28;20027;-49
2023/12/03 00:48:13;;;;;;;17.35;5.78;;;18.20;51.00;;;;;;5089871;28;20031;-48
2023/12/03 00:50:39;;;;;;;12.23;5.07;;;18.20;50.90;;;;;;5111113;28;20034;-48
2023/12/03 00:53:05;;;;;;;7.85;5.15;;;18.20;51.40;;;;;;5112375;28;20031;-49
2023/12/03 00:55:31;;;;;;;7.57;4.70;;;18.20;50.60;;;;;;5094186;28;20397;-48
2023/12/03 00:57:56;;;;;;;13.52;5.43;;;18.20;50.50;;;;;;5111185;28;20028;-48
2023/12/03 01:00:22;;;;;;;7.50;4.57;;;18.20;50.50;;;;;;5093607;28;20027;-45
2023/12/03 01:02:48;;;;;;;9.95;5.22;;;18.20;50.40;;;;;;5076629;28;20028;-47
2023/12/03 01:05:14;;;;;;;8.60;4.72;;;18.20;50.20;;;;;;5093343;28;20020;-50
2023/12/03 01:07:40;;;;;;;9.38;4.90;;;18.20;50.40;;;;;;5093306;28;20139;-45
2023/12/03 01:10:06;;;;;;;12.57;4.95;;;18.20;50.40;;;;;;5112164;28;20375;-49
2023/12/03 01:12:31;;;;;;;6.55;4.60;;;18.20;50.10;;;;;;5111116;28;20555;-46
2023/12/03 01:14:57;;;;;;;7.65;4.60;;;18.20;50.00;;;;;;5111537;28;20028;-48
2023/12/03 01:17:23;;;;;;;8.55;4.75;;;18.20;49.80;;;;;;5109331;28;20034;-46
2023/12/03 01:19:49;;;;;;;7.38;4.30;;;18.20;49.90;;;;;;5111078;28;20123;-47
2023/12/03 01:22:15;;;;;;;8.15;4.57;;;18.20;49.80;;;;;;5111736;28;20328;-47
2023/12/03 01:24:40;;;;;;;8.35;4.28;;;18.20;49.80;;;;;;5117376;27;20019;-46
2023/12/03 01:27:06;;;;;;;7.45;4.60;;;18.20;49.90;;;;;;5111116;28;20027;-45
2023/12/03 01:29:33;;;;;;;8.65;4.78;;;18.20;50.00;;;;;;5110186;28;20058;-45
2023/12/03 01:31:58;;;;;;;7.47;3.97;;;18.20;49.90;;;;;;5111179;28;20027;-49
2023/12/03 01:34:24;;;;;;;5.53;3.95;;;18.20;49.70;;;;;;5092452;28;20035;-46
2023/12/03 01:36:50;;;;;;;6.80;3.95;;;18.20;49.90;;;;;;5110999;28;20039;-49
2023/12/03 01:39:16;;;;;;;6.18;3.80;;;18.20;49.80;;;;;;5110585;28;20020;-48
2023/12/03 01:41:42;;;;;;;5.07;3.80;;;18.20;49.50;;;;;;5110978;28;20106;-49
2023/12/03 01:44:07;;;;;;;5.82;3.88;;;18.20;49.70;;;;;;5111932;28;20028;-51
2023/12/03 01:46:34;;;;;;;7.47;3.90;;;18.20;49.80;;;;;;5093186;28;20028;-53
2023/12/03 01:49:00;;;;;;;5.75;3.58;;;18.20;49.60;;;;;;5090175;28;20114;-47
2023/12/03 01:51:26;;;;;;;7.80;4.20;;;18.20;49.60;;;;;;5092266;28;20027;-52
2023/12/03 01:53:54;;;;;;;8.45;3.85;;;18.20;49.60;;;;;;5112060;28;20037;-53
2023/12/03 01:56:20;;;;;;;10.20;4.38;;;18.10;49.70;;;;;;5111377;28;20394;-48
2023/12/03 01:58:46;;;;;;;6.35;3.88;;;18.20;49.40;;;;;;5111283;28;20106;-51
2023/12/03 02:01:12;;;;;;;6.13;3.72;;;18.20;50.10;;;;;;5115405;28;20052;-49
2023/12/03 02:03:38;;;;;;;6.20;3.60;;;18.20;50.20;;;;;;5106794;28;20063;-50
2023/12/03 02:06:10;;;;;;;7.82;4.05;;;18.20;49.50;;;;;;5115067;28;20427;-46
2023/12/03 02:08:37;;;;;;;5.65;3.80;;;18.20;49.60;;;;;;5114169;28;20542;-49
2023/12/03 02:11:07;;;;;;;5.53;3.35;;;18.20;49.90;;;;;;5115344;28;20036;-51
2023/12/03 02:13:33;;;;;;;;;;;18.20;49.50;;;;;;5115041;28;20036;-50
2023/12/03 02:15:59;;;;;;;7.32;3.72;;;18.20;49.40;;;;;;5079667;28;20370;-46
2023/12/03 02:18:26;;;;;;;5.15;3.10;;;18.20;49.30;;;;;;5114532;28;20031;-46
2023/12/03 02:20:53;;;;;;;6.15;3.50;;;18.20;49.30;;;;;;5114411;28;20486;-48
2023/12/03 02:23:19;;;;;;;5.80;3.45;;;18.20;49.40;;;;;;5114053;28;20051;-45
2023/12/03 02:25:46;;;;;;;5.75;3.42;;;18.20;49.40;;;;;;5115316;28;20015;-51
2023/12/03 02:28:12;;;;;;;6.35;3.38;;;18.20;49.30;;;;;;5113913;28;20506;-48
2023/12/03 02:30:37;;;;;;;4.82;3.15;;;18.20;49.40;;;;;;5113715;28;20031;-48
2023/12/03 02:33:03;;;;;;;6.10;3.50;;;18.20;49.30;;;;;;5114128;28;20031;-49
2023/12/03 02:35:29;;;;;;;5.75;3.40;;;18.20;49.30;;;;;;5114220;28;20034;-48
2023/12/03 02:37:55;;;;;;;5.65;3.78;;;18.20;49.40;;;;;;5112881;28;20024;-45
2023/12/03 02:40:21;;;;;;;5.50;3.55;;;18.20;49.20;;;;;;5114039;28;20023;-49
2023/12/03 02:42:46;;;;;;;5.18;3.67;;;18.20;49.30;;;;;;5113898;28;20566;-47
2023/12/03 02:45:12;;;;;;;5.85;4.05;;;18.20;49.20;;;;;;5096969;28;20023;-45
2023/12/03 02:47:38;;;;;;;5.57;3.53;;;18.20;49.10;;;;;;5095783;28;20050;-47
2023/12/03 02:50:04;;;;;;;5.60;3.40;;;18.20;49.10;;;;;;5112844;28;20031;-47
2023/12/03 02:52:30;;;;;;;5.80;3.40;;;18.10;48.90;;;;;;5114230;28;20085;-45
2023/12/03 02:54:56;;;;;;;4.25;3.20;;;18.10;49.10;;;;;;5113388;28;20436;-46
2023/12/03 02:57:22;;;;;;;4.45;3.25;;;18.20;49.10;;;;;;5095092;28;20500;-48
2023/12/03 02:59:47;;;;;;;5.05;3.40;;;18.20;49.10;;;;;;5114769;28;20486;-48
2023/12/03 03:02:13;;;;;;;5.25;3.20;;;18.20;49.10;;;;;;5113475;28;20026;-51
2023/12/03 03:04:39;;;;;;;5.78;3.35;;;18.20;49.10;;;;;;5114523;28;20027;-48
2023/12/03 03:07:05;;;;;;;4.57;3.20;;;18.20;49.00;;;;;;5112781;28;20028;-49
2023/12/03 03:09:31;;;;;;;3.90;2.97;;;18.20;49.00;;;;;;5112630;28;20035;-49
2023/12/03 03:11:57;;;;;;;5.03;3.40;;;18.20;49.30;;;;;;5114338;28;20031;-54
2023/12/03 03:14:26;;;;;;;4.45;3.22;;;18.20;49.00;;;;;;5112421;28;20055;-52
2023/12/03 03:16:52;;;;;;;5.83;3.27;;;18.20;49.00;;;;;;5113630;28;20490;-47
2023/12/03 03:19:17;;;;;;;6.07;3.58;;;18.10;48.90;;;;;;5113324;28;20039;-50
2023/12/03 03:21:43;;;;;;;5.25;3.00;;;18.20;48.80;;;;;;5113047;28;20024;-54
2023/12/03 03:24:09;;;;;;;5.45;3.28;;;18.20;48.80;;;;;;5113552;28;20076;-50
2023/12/03 03:26:38;;;;;;;4.13;2.83;;;18.20;48.60;;;;;;5113743;28;20129;-50
2023/12/03 03:29:05;;;;;;;6.72;3.25;;;18.20;48.70;;;;;;5113225;28;20094;-54
2023/12/03 03:31:31;;;;;;;7.35;3.33;;;18.20;48.80;;;;;;5113301;28;20031;-52
2023/12/03 03:33:57;;;;;;;5.03;2.97;;;18.20;48.60;;;;;;5113117;28;20027;-51
2023/12/03 03:36:23;;;;;;;5.03;3.30;;;18.20;48.50;;;;;;5113174;28;20034;-52
2023/12/03 03:38:50;;;;;;;4.65;3.10;;;18.20;48.50;;;;;;5112937;28;20106;-51
2023/12/03 03:41:15;;;;;;;5.68;3.20;;;18.20;48.80;;;;;;5112923;28;20024;-53
2023/12/03 03:43:41;;;;;;;4.53;2.97;;;18.20;48.40;;;;;;5095198;28;20026;-48
2023/12/03 03:46:11;;;;;;;4.13;3.05;;;18.20;48.60;;;;;;5113184;28;20020;-48
2023/12/03 03:48:37;;;;;;;5.28;3.42;;;18.20;49.10;;;;;;5112532;28;20063;-50
2023/12/03 03:51:05;;;;;;;4.63;3.00;;;18.20;48.30;;;;;;5098012;28;20051;-52
2023/12/03 03:53:31;;;;;;;4.05;2.95;;;18.20;48.50;;;;;;5092795;28;20028;-51
2023/12/03 03:55:57;;;;;;;5.60;3.00;;;18.20;48.40;;;;;;5092469;28;20043;-46
2023/12/03 03:58:23;;;;;;;3.80;3.05;;;18.20;48.60;;;;;;5091314;28;20103;-49
2023/12/03 04:00:49;;;;;;;5.57;3.08;;;18.20;48.70;;;;;;5084082;28;20016;-50
2023/12/03 04:03:15;;;;;;;5.10;3.13;;;18.20;48.50;;;;;;5092192;28;20498;-48
2023/12/03 04:05:42;;;;;;;3.45;2.72;;;18.20;48.60;;;;;;5093072;28;20032;-49
2023/12/03 04:08:07;;;;;;;5.03;2.90;;;18.20;48.50;;;;;;5091817;28;20035;-51
2023/12/03 04:10:33;;;;;;;4.40;2.92;;;18.20;48.70;;;;;;5083737;28;20491;-46
2023/12/03 04:12:59;;;;;;;4.00;3.03;;;18.10;48.60;;;;;;5092096;28;20020;-51
2023/12/03 04:15:25;;;;;;;4.25;3.10;;;18.20;48.60;;;;;;5091682;28;20410;-54
2023/12/03 04:17:50;;;;;;;4.43;3.17;;;18.10;48.50;;;;;;5090793;28;20042;-49
2023/12/03 04:20:16;;;;;;;3.67;2.83;;;18.10;48.50;;;;;;5091968;28;20020;-46
2023/12/03 04:22:42;;;;;;;4.53;2.88;;;18.20;48.60;;;;;;5090949;28;20058;-49
2023/12/03 04:25:08;;;;;;;4.07;3.03;;;18.10;48.60;;;;;;5091681;28;20035;-48
2023/12/03 04:27:34;;;;;;;5.40;2.85;;;18.10;48.50;;;;;;5084133;28;20050;-50
2023/12/03 04:29:59;;;;;;;4.47;3.00;;;18.10;48.90;;;;;;5092532;28;20024;-50
2023/12/03 04:32:25;;;;;;;3.72;2.90;;;18.10;48.50;;;;;;5097764;28;20036;-51
2023/12/03 04:34:51;;;;;;;4.90;2.90;;;18.20;48.50;;;;;;5091823;28;20035;-52
2023/12/03 04:37:17;;;;;;;5.63;3.22;;;18.20;48.50;;;;;;5090072;28;20115;-54
2023/12/03 04:39:43;;;;;;;4.32;3.05;;;18.10;48.30;;;;;;5083716;28;20115;-48
2023/12/03 04:42:09;;;;;;;3.85;2.65;;;18.20;48.60;;;;;;5091442;28;20031;-46
2023/12/03 04:44:35;;;;;;;5.63;3.08;;;18.10;48.40;;;;;;5091953;28;20024;-51
2023/12/03 04:47:00;;;;;;;4.72;3.17;;;18.10;48.20;;;;;;5092246;28;20028;-47
2023/12/03 04:49:26;;;;;;;4.65;2.88;;;18.10;48.40;;;;;;5091396;28;20055;-48
2023/12/03 04:51:52;;;;;;;5.80;3.50;;;18.10;48.40;;;;;;5073103;28;20035;-48
2023/12/03 04:54:18;;;;;;;5.03;2.97;;;18.20;48.50;;;;;;5090579;28;20016;-47
2023/12/03 04:56:43;;;;;;;5.43;2.92;;;18.10;48.40;;;;;;5090568;28;20035;-46
2023/12/03 04:59:09;;;;;;;4.75;2.65;;;18.10;48.30;;;;;;5090677;28;20031;-45
2023/12/03 05:01:35;;;;;;;3.65;2.72;;;18.10;48.40;;;;;;5091610;28;20035;-45
2023/12/03 05:04:01;;;;;;;4.55;3.20;;;18.10;48.40;;;;;;5091129;28;20399;-47
2023/12/03 05:06:26;;;;;;;3.83;2.90;;;18.10;48.30;;;;;;5073777;28;20485;-47
2023/12/03 05:08:52;;;;;;;4.90;2.90;;;18.10;48.40;;;;;;5090467;28;20503;-47
2023/12/03 05:11:18;;;;;;;4.50;2.90;;;18.10;48.40;;;;;;5090998;28;20028;-46
2023/12/03 05:13:44;;;;;;;3.25;2.60;;;18.10;48.40;;;;;;5090992;28;20410;-45
2023/12/03 05:16:10;;;;;;;3.85;2.80;;;18.10;48.40;;;;;;5081444;28;20104;-48
2023/12/03 05:18:36;;;;;;;4.57;3.05;;;18.10;48.30;;;;;;5082424;28;20574;-50
2023/12/03 05:21:03;;;;;;;3.92;2.85;;;18.10;48.30;;;;;;5090920;28;20091;-48
2023/12/03 05:23:28;;;;;;;4.18;3.10;;;18.10;48.40;;;;;;5090834;28;20028;-46
2023/12/03 05:25:54;;;;;;;5.25;3.42;;;18.10;48.50;;;;;;5072864;28;20035;-52
2023/12/03 05:28:21;;;;;;;4.30;3.17;;;18.10;48.30;;;;;;5081869;28;20269;-49
2023/12/03 05:30:46;;;;;;;3.95;2.97;;;18.10;48.50;;;;;;5091235;28;20039;-51
2023/12/03 05:33:13;;;;;;;5.93;3.33;;;18.10;48.30;;;;;;5091380;28;20097;-46
2023/12/03 05:35:38;;;;;;;5.13;3.08;;;18.10;48.30;;;;;;5090653;28;20572;-52
2023/12/03 05:38:04;;;;;;;4.60;3.08;;;18.10;48.40;;;;;;5090267;28;20111;-52
2023/12/03 05:40:30;;;;;;;4.55;3.33;;;18.10;48.30;;;;;;5072884;28;20016;-46
2023/12/03 05:42:56;;;;;;;5.13;3.33;;;18.10;48.30;;;;;;5066963;28;20116;-51
2023/12/03 05:45:21;;;;;;;6.00;3.38;;;18.10;48.40;;;;;;5079353;28;20025;-47
2023/12/03 05:47:47;;;;;;;4.38;3.45;;;18.10;48.40;;;;;;5090416;28;20086;-46
2023/12/03 05:50:13;;;;;;;5.93;3.35;;;18.10;48.40;;;;;;5082980;28;20029;-50
2023/12/03 05:52:39;;;;;;;4.50;3.20;;;18.10;48.40;;;;;;5127547;22;20418;-50
2023/12/03 05:55:05;;;;;;;5.10;3.33;;;18.10;48.30;;;;;;5102016;28;20458;-50
2023/12/03 05:57:30;;;;;;;6.15;3.22;;;18.10;48.30;;;;;;5102778;28;20027;-48
2023/12/03 05:59:56;;;;;;;6.03;3.35;;;18.10;48.40;;;;;;5101590;28;20054;-47
2023/12/03 06:02:22;;;;;;;4.95;3.30;;;18.10;48.30;;;;;;5110492;28;20077;-47
2023/12/03 06:04:48;;;;;;;4.68;3.42;;;18.10;48.50;;;;;;5111634;28;20527;-48
2023/12/03 06:07:13;;;;;;;5.43;3.38;;;18.20;48.30;;;;;;5110465;28;20028;-48
2023/12/03 06:09:39;;;;;;;4.95;3.15;;;18.20;48.20;;;;;;5102992;28;20057;-48
2023/12/03 06:12:06;;;;;;;6.07;3.40;;;18.20;48.40;;;;;;5111565;28;20398;-49
2023/12/03 06:14:31;;;;;;;6.35;3.22;;;18.20;48.20;;;;;;5109499;28;20095;-48
2023/12/03 06:16:58;;;;;;;5.88;3.47;;;18.20;48.20;;;;;;5109670;28;20027;-47
2023/12/03 06:19:23;;;;;;;5.60;3.60;;;18.20;48.30;;;;;;5110446;28;20111;-51
2023/12/03 06:21:49;;;;;;;5.65;3.53;;;18.20;48.30;;;;;;5111474;28;20061;-47
2023/12/03 06:24:15;;;;;;;4.60;3.30;;;18.20;48.30;;;;;;5110863;28;20364;-47
2023/12/03 06:26:41;;;;;;;5.65;3.65;;;18.20;48.20;;;;;;5110422;28;20040;-48
2023/12/03 06:29:07;;;;;;;6.70;3.88;;;18.20;48.40;;;;;;5110608;28;20501;-47
2023/12/03 06:31:33;;;;;;;6.43;3.83;;;18.20;48.30;;;;;;5110417;28;20016;-47
2023/12/03 06:33:59;;;;;;;5.57;3.83;;;18.20;48.40;;;;;;5111360;28;20468;-48
2023/12/03 06:36:26;;;;;;;5.45;3.88;;;18.20;48.40;;;;;;5111203;28;20440;-48
2023/12/03 06:38:52;;;;;;;5.78;3.58;;;18.20;48.30;;;;;;5105816;28;20028;-47
2023/12/03 06:41:18;;;;;;;7.35;3.97;;;18.20;48.30;;;;;;5096621;28;20026;-50
2023/12/03 06:43:44;;;;;;;9.30;4.35;;;18.20;48.30;;;;;;5106931;28;20020;-46
2023/12/03 06:46:10;;;;;;;8.55;4.38;;;18.20;48.20;;;;;;5113080;28;20390;-47
2023/12/03 06:48:36;;;;;;;9.25;3.97;;;18.20;48.20;;;;;;5114233;28;20039;-48
2023/12/03 06:51:02;;;;;;;11.65;4.57;;;18.20;48.30;;;;;;5114645;28;20031;-50
2023/12/03 06:53:28;;;;;;;13.75;5.57;;;18.10;48.00;;;;;;5113822;28;20020;-50
2023/12/03 06:55:53;;;;;;;12.85;5.78;;;18.20;48.10;;;;;;5115084;28;20031;-47
2023/12/03 06:58:19;;;;;;;15.60;5.90;;;18.20;48.20;;;;;;5113286;28;20027;-47
2023/12/03 07:00:45;;;;;;;16.77;6.35;;;18.20;48.30;;;;;;5114114;28;20024;-47
2023/12/03 07:03:11;;;;;;;11.82;5.25;;;18.20;48.50;;;;;;5112899;28;20425;-46
2023/12/03 07:05:38;;;;;;;15.73;6.10;;;18.20;48.30;;;;;;5114458;28;20019;-52
2023/12/03 07:08:04;;;;;;;13.23;5.57;;;18.20;48.40;;;;;;5113165;28;20019;-48
2023/12/03 07:10:30;;;;;;;17.98;5.82;;;18.20;48.30;;;;;;5104691;28;20502;-50
2023/12/03 07:12:56;;;;;;;19.42;6.60;;;18.20;48.50;;;;;;5113242;28;20031;-47
2023/12/03 07:15:21;;;;;;;13.77;5.32;;;18.20;48.50;;;;;;5113438;28;20034;-47
2023/12/03 07:17:47;;;;;;;20.13;6.88;;;18.20;48.70;;;;;;5112666;28;20036;-47
2023/12/03 07:20:13;;;;;;;15.93;6.38;;;18.20;49.10;;;;;;5112941;28;20031;-47
2023/12/03 07:22:39;;;;;;;19.48;6.97;;;18.20;49.30;;;;;;5119343;27;20028;-49
2023/12/03 07:25:05;;;;;;;18.25;6.93;;;18.20;49.00;;;;;;5113450;28;20019;-47
2023/12/03 07:27:31;;;;;;;20.48;7.25;;;18.30;49.50;;;;;;5112275;28;20494;-48
2023/12/03 07:29:57;;;;;;;19.15;7.82;;;18.30;49.70;;;;;;5113249;28;20035;-49
2023/12/03 07:32:23;;;;;;;18.20;7.45;;;18.30;49.60;;;;;;5112591;28;20026;-50
2023/12/03 07:34:50;;;;;;;23.23;8.18;;;18.30;49.20;;;;;;5113021;28;20015;-47
2023/12/03 07:37:15;;;;;;;21.98;7.47;;;18.30;49.40;;;;;;5109786;28;20027;-47
2023/12/03 07:39:41;;;;;;;24.17;8.32;;;18.30;49.30;;;;;;5111993;28;20045;-45
2023/12/03 07:42:07;;;;;;;26.55;7.85;;;18.30;49.60;;;;;;5113137;28;20027;-47
2023/12/03 07:44:33;;;;;;;25.45;9.13;;;18.30;50.60;;;;;;5112777;28;20015;-48
2023/12/03 07:47:00;;;;;;;21.73;8.65;;;18.30;49.80;;;;;;5113891;28;20076;-48
2023/12/03 07:49:25;;;;;;;26.40;8.50;;;18.30;49.50;;;;;;5111700;28;20453;-47
2023/12/03 07:51:51;;;;;;;27.02;9.45;;;18.30;50.20;;;;;;5112304;28;20126;-47
2023/12/03 07:54:17;;;;;;;25.75;9.57;;;18.30;49.60;;;;;;5113471;28;20027;-47
2023/12/03 07:56:43;;;;;;;25.75;8.70;;;18.40;49.20;;;;;;5113539;28;20055;-46
2023/12/03 07:59:09;;;;;;;24.05;9.23;;;18.30;49.60;;;;;;5111173;28;20070;-46
2023/12/03 08:01:36;;;;;;;24.83;8.00;;;18.30;49.00;;;;;;5112337;28;20095;-48
2023/12/03 08:04:03;;;;;;;25.40;9.10;;;18.30;50.00;;;;;;5112024;28;20042;-52
2023/12/03 08:06:32;;;;;;;27.42;9.05;;;18.30;48.80;;;;;;5110639;28;20065;-46
2023/12/03 08:08:58;;;;;;;28.80;9.68;;;18.30;48.90;;;;;;5111213;28;20081;-47
2023/12/03 08:11:24;;;;;;;24.48;8.75;;;18.30;49.10;;;;;;5113255;28;20072;-46
2023/12/03 08:13:50;;;;;;;23.70;8.15;;;18.30;49.20;;;;;;5112601;28;20478;-46
2023/12/03 08:16:16;;;;;;;24.15;8.43;;;18.30;49.10;;;;;;5113233;28;20078;-47
2023/12/03 08:18:42;;;;;;;22.05;8.05;;;18.30;49.30;;;;;;5111836;28;20027;-47
2023/12/03 08:21:11;;;;;;;18.60;6.90;;;18.30;49.60;;;;;;5112489;28;20099;-48
2023/12/03 08:23:37;;;;;;;18.38;8.25;;;18.30;49.00;;;;;;5110345;28;20156;-50
2023/12/03 08:26:04;;;;;;;21.77;9.00;;;18.40;49.00;;;;;;5112497;28;20107;-47
2023/12/03 08:28:30;;;;;;;27.20;9.00;;;18.40;49.70;;;;;;5112494;28;20058;-47
2023/12/03 08:30:56;;;;;;;22.70;8.77;;;18.40;50.80;;;;;;5112566;27;20051;-47
2023/12/03 08:33:22;;;;;;;19.52;7.97;;;18.40;49.70;;;;;;5111906;28;20062;-49
2023/12/03 08:35:47;;;;;;;22.65;7.95;;;18.40;50.10;;;;;;5110811;28;20489;-49
2023/12/03 08:38:13;;;;;;;22.15;7.65;;;18.40;49.50;;;;;;5111485;28;20031;-49
2023/12/03 08:40:39;;;;;;;18.13;8.13;;;18.40;50.80;;;;;;5110829;28;20042;-47
2023/12/03 08:43:05;;;;;;;13.48;8.43;;;18.40;48.60;;;;;;5106007;28;20658;-50
2023/12/03 08:45:32;;;;;;;13.98;8.40;;;17.70;43.10;;;;;;5112752;28;20659;-47
2023/12/03 08:48:00;;;;;;;19.52;8.43;;;17.40;41.60;;;;;;5116261;27;20031;-47
2023/12/03 08:50:28;;;;;;;12.32;7.30;;;17.50;42.40;;;;;;5112463;28;20026;-48
2023/12/03 08:52:58;;;;;;;11.63;6.57;;;17.60;43.70;;;;;;5112409;28;20030;-48
2023/12/03 08:55:23;;;;;;;14.05;5.90;;;17.70;45.10;;;;;;5112389;28;20563;-49
2023/12/03 08:57:49;;;;;;;18.05;6.28;;;17.90;46.10;;;;;;5111996;28;20020;-47
2023/12/03 09:00:16;;;;;;;11.52;5.57;;;18.10;46.40;;;;;;5107747;28;20073;-48
2023/12/03 09:02:48;;;;;;;13.15;5.82;;;18.20;47.00;;;;;;5112878;28;20026;-49
2023/12/03 09:05:14;;;;;;;11.90;5.30;;;18.30;48.60;;;;;;5116625;27;20069;-47
2023/12/03 09:07:39;;;;;;;22.67;5.70;;;18.50;50.80;;;;;;5111495;28;20027;-47
2023/12/03 09:10:06;;;;;;;15.90;6.32;;;18.60;51.70;;;;;;5112179;28;20224;-47
2023/12/03 09:12:32;;;;;;;17.05;5.50;;;18.80;52.70;;;;;;5111972;28;20494;-50
2023/12/03 09:14:58;;;;;;;14.43;5.65;;;18.90;52.80;;;;;;5111120;28;21976;-51
2023/12/03 09:17:26;;;;;;;17.10;6.15;;;19.00;55.00;;;;;;5110475;28;20023;-48
2023/12/03 09:19:52;;;;;;;21.63;6.05;;;19.10;56.30;;;;;;5112139;28;20414;-49
2023/12/03 09:22:18;;;;;;;11.23;5.85;;;19.20;55.80;;;;;;5109720;28;20026;-47
2023/12/03 09:24:43;;;;;;;15.68;6.07;;;19.20;56.70;;;;;;5112100;28;20023;-47
2023/12/03 09:27:09;;;;;;;14.10;5.75;;;19.20;56.40;;;;;;5112079;28;20035;-47
2023/12/03 09:29:36;;;;;;;17.20;5.43;;;19.20;56.20;;;;;;5111917;28;20055;-47
2023/12/03 09:32:04;;;;;;;15.90;5.20;;;19.10;55.70;;;;;;5111869;28;20072;-51
2023/12/03 09:34:30;;;;;;;13.55;4.53;;;19.10;55.20;;;;;;5112130;28;20390;-47
2023/12/03 09:36:56;;;;;;;11.98;4.78;;;19.10;54.70;;;;;;5112217;28;20551;-49
2023/12/03 09:39:22;;;;;;;14.13;4.63;;;19.10;54.60;;;;;;5110558;28;20120;-54
2023/12/03 09:41:50;;;;;;;11.70;5.50;;;19.10;54.60;;;;;;5110536;28;20478;-54
2023/12/03 09:44:33;;;;;;;9.63;4.65;;;19.10;54.50;;;;;;5109761;28;20016;-54
2023/12/03 09:47:00;;;;;;;9.57;4.30;;;19.10;54.50;;;;;;5111631;28;20024;-50
2023/12/03 09:49:28;;;;;;;14.50;4.20;;;19.10;54.60;;;;;;5109157;28;20022;-49
2023/12/03 09:51:59;;;;;;;14.23;4.65;;;19.10;54.40;;;;;;5106689;28;20024;-47
2023/12/03 09:54:25;;;;;;;16.42;4.82;;;19.10;54.30;;;;;;5108906;28;20122;-48
2023/12/03 09:56:55;;;;;;;13.93;4.15;;;19.10;53.70;;;;;;5111897;28;20107;-49
2023/12/03 09:59:21;;;;;;;19.38;4.65;;;19.10;54.10;;;;;;5111441;28;20551;-48
2023/12/03 10:01:49;;;;;;;33.75;4.72;;;19.10;53.90;;;;;;5111667;28;20096;-48
2023/12/03 10:04:14;;;;;;;17.58;4.80;;;19.10;54.00;;;;;;5111756;28;20030;-47
2023/12/03 10:06:43;;;;;;;18.85;5.20;;;19.10;54.60;;;;;;5111680;28;20024;-47
2023/12/03 10:09:12;;;;;;;29.73;4.82;;;19.10;54.70;;;;;;5111493;28;20023;-47
2023/12/03 10:11:44;;;;;;;14.38;4.10;;;19.10;55.30;;;;;;5111598;28;20027;-52
2023/12/03 10:14:13;;;;;;;14.65;4.72;;;19.20;55.60;;;;;;5110388;28;20035;-48
2023/12/03 10:16:39;;;;;;;13.55;5.05;;;19.20;57.40;;;;;;5111265;28;20073;-47
2023/12/03 10:19:05;;;;;;;10.77;5.22;;;19.10;56.80;;;;;;5111080;28;20024;-48
2023/12/03 10:21:30;;;;;;;11.90;4.72;;;19.10;56.10;;;;;;5114914;28;20510;-48
2023/12/03 10:23:58;;;;;;;13.88;5.38;;;19.10;56.30;;;;;;5115325;28;20020;-47
2023/12/03 10:26:24;;;;;;;21.88;5.35;;;19.10;57.30;;;;;;5114517;28;20020;-48
2023/12/03 10:28:49;;;;;;;10.05;4.80;;;19.10;57.60;;;;;;5106605;27;20027;-47
2023/12/03 10:31:18;;;;;;;15.90;4.78;;;19.20;57.70;;;;;;5115324;28;20425;-50
2023/12/03 10:33:45;;;;;;;18.98;5.18;;;19.10;57.70;;;;;;5115417;28;20024;-49
2023/12/03 10:36:11;;;;;;;13.25;5.10;;;19.10;57.90;;;;;;5115376;28;20040;-47
2023/12/03 10:38:39;;;;;;;19.00;5.47;;;19.10;58.30;;;;;;5115064;28;20067;-47
2023/12/03 10:41:07;;;;;;;24.95;4.53;;;19.10;58.50;;;;;;5114043;28;20072;-47
2023/12/03 10:43:38;;;;;;;16.00;4.72;;;19.20;58.50;;;;;;5113301;28;20034;-47
2023/12/03 10:46:06;;;;;;;12.85;4.70;;;19.20;58.40;;;;;;5114990;28;20402;-47
2023/12/03 10:48:34;;;;;;;11.80;4.60;;;19.20;58.90;;;;;;5114781;28;20036;-47
2023/12/03 10:51:07;;;;;;;18.67;5.18;;;19.20;58.60;;;;;;5114831;28;20544;-49
2023/12/03 10:53:34;;;;;;;11.32;4.53;;;19.20;58.00;;;;;;5114991;28;20035;-48
2023/12/03 10:56:05;;;;;;;15.48;4.82;;;19.20;57.60;;;;;;5113712;28;20027;-49
2023/12/03 10:58:36;;;;;;;10.63;4.25;;;19.20;57.40;;;;;;5114559;28;20040;-48
2023/12/03 11:01:10;;;;;;;26.85;4.68;;;19.20;56.20;;;;;;5114971;28;20023;-51
2023/12/03 11:03:57;;;;;;;20.98;5.00;;;19.20;56.40;;;;;;5114903;28;20102;-53
2023/12/03 11:06:24;;;;;;;24.63;4.85;;;19.20;56.30;;;;;;5112565;28;20050;-47
2023/12/03 11:08:55;;;;;;;15.80;5.03;;;19.30;56.40;;;;;;5112440;28;20440;-47
2023/12/03 11:11:22;;;;;;;14.73;5.10;;;19.20;55.60;;;;;;5114382;28;20027;-47
2023/12/03 11:13:52;;;;;;;17.67;5.00;;;19.20;55.40;;;;;;5106087;28;20074;-50
2023/12/03 11:16:19;;;;;;;17.23;5.05;;;19.20;54.80;;;;;;5113302;28;20027;-47
2023/12/03 11:18:53;;;;;;;13.68;4.53;;;19.20;55.00;;;;;;5115121;27;20027;-48
2023/12/03 11:21:58;;;;;;;21.48;4.97;;;19.30;54.90;;;;;;5118090;27;20069;-47
2023/12/03 11:24:43;;;;;;;19.50;5.13;;;19.20;54.50;;;;;;5107940;28;20024;-48
2023/12/03 11:27:09;;;;;;;11.90;4.40;;;19.30;54.80;;;;;;5096093;28;20039;-48
2023/12/03 11:29:52;;;;;;;18.27;4.97;;;19.30;54.50;;;;;;5113890;28;20020;-49
2023/12/03 11:32:19;;;;;;;17.67;4.40;;;19.30;54.80;;;;;;5113694;28;20107;-52
2023/12/03 11:34:59;;;;;;;12.32;4.82;;;19.30;54.30;;;;;;5114158;28;20483;-50
2023/12/03 11:37:30;;;;;;;14.82;4.78;;;19.30;54.80;;;;;;5113777;28;20036;-53
2023/12/03 11:40:01;;;;;;;15.90;4.85;;;19.30;54.50;;;;;;5114223;28;20666;-52
2023/12/03 11:42:28;;;;;;;16.40;4.70;;;19.40;54.80;;;;;;5112440;28;20043;-49
2023/12/03 11:45:17;;;;;;;13.52;4.47;;;19.30;54.50;;;;;;5113200;28;20020;-45
2023/12/03 11:48:06;;;;;;;18.52;5.55;;;19.40;54.70;;;;;;5112427;28;20039;-48
2023/12/03 11:50:42;;;;;;;17.55;6.03;;;19.40;54.30;;;;;;5113839;28;20035;-48
2023/12/03 11:53:12;;;;;;;27.50;6.25;;;19.30;53.90;;;;;;5129044;22;20036;-53
2023/12/03 11:55:41;;;;;;;16.92;6.22;;;19.30;54.20;;;;;;5111309;28;20064;-51
2023/12/03 11:58:08;;;;;;;;;;;19.20;53.90;;;;;;5112089;28;20429;-51
2023/12/03 12:00:35;;;;;;;17.60;6.32;;;19.20;53.50;;;;;;5111772;28;20401;-54
2023/12/03 12:03:03;;;;;;;17.83;7.38;;;19.20;53.30;;;;;;5111566;28;20479;-50
2023/12/03 12:05:29;;;;;;;15.85;6.93;;;19.20;53.20;;;;;;5111624;28;20031;-51
2023/12/03 12:08:02;;;;;;;17.10;7.05;;;19.20;53.20;;;;;;5111350;28;20156;-55
2023/12/03 12:10:30;;;;;;;18.65;6.63;;;19.20;53.20;;;;;;5112079;28;20028;-52
2023/12/03 12:12:57;;;;;;;13.85;6.18;;;19.20;53.20;;;;;;5113384;28;20031;-49
2023/12/03 12:15:23;;;;;;;14.23;6.03;;;19.20;53.30;;;;;;5113419;28;20501;-53
2023/12/03 12:17:49;;;;;;;15.13;6.90;;;19.20;53.30;;;;;;5113129;28;20035;-50
2023/12/03 12:20:28;;;;;;;18.10;6.20;;;19.20;53.30;;;;;;5113462;27;20034;-53
2023/12/03 12:22:55;;;;;;;15.27;6.03;;;19.20;53.40;;;;;;5113214;28;20031;-51
2023/12/03 12:25:23;;;;;;;15.18;6.10;;;19.20;54.00;;;;;;5113232;28;20497;-54
2023/12/03 12:27:50;;;;;;;14.45;6.25;;;19.20;53.40;;;;;;5112908;27;20032;-51
2023/12/03 12:30:19;;;;;;;13.48;5.53;;;19.20;53.40;;;;;;5113186;28;20028;-55
2023/12/03 12:32:46;;;;;;;15.90;6.28;;;19.20;53.40;;;;;;5112989;28;20111;-53
2023/12/03 12:35:12;;;;;;;16.55;6.10;;;19.10;53.40;;;;;;5111767;28;20031;-48
2023/12/03 12:37:38;;;;;;;13.65;5.70;;;19.20;53.40;;;;;;5112686;28;20043;-50
2023/12/03 12:40:11;;;;;;;16.33;5.50;;;19.20;53.40;;;;;;5112996;28;20024;-50
2023/12/03 12:42:42;;;;;;;14.02;5.85;;;19.20;53.40;;;;;;5112216;28;20020;-52